createdAt,value
2023-05-21T00:00:55.520Z,16.25
2023-05-21T00:02:59.276Z,14.82
2023-05-21T00:05:02.796Z,13.70
2023-05-21T00:06:04.575Z,13.18
2023-05-21T00:07:06.920Z,14.18
2023-05-21T00:08:08.683Z,13.05
2023-05-21T00:09:12.760Z,17.92
2023-05-21T00:10:14.466Z,14.32
2023-05-21T00:11:16.145Z,14.93
2023-05-21T00:12:17.770Z,15.75
2023-05-21T00:13:19.484Z,14.73
2023-05-21T00:14:21.120Z,15.30
2023-05-21T00:15:22.740Z,15.13
2023-05-21T00:16:25.390Z,15.75
2023-05-21T00:17:28.540Z,13.43
2023-05-21T00:18:32.248Z,13.77
2023-05-21T00:19:33.992Z,15.55
2023-05-21T00:20:35.688Z,16.90
2023-05-21T00:21:38.206Z,15.70
2023-05-21T00:23:42.760Z,16.70
2023-05-21T00:25:50.427Z,14.88
2023-05-21T00:26:52.124Z,14.75
2023-05-21T00:27:55.087Z,15.73
2023-05-21T00:28:56.857Z,15.30
2023-05-21T00:29:58.549Z,14.40
2023-05-21T00:31:00.218Z,15.45
2023-05-21T00:32:01.964Z,17.23
2023-05-21T00:33:04.132Z,16.65
2023-05-21T00:34:05.913Z,15.75
2023-05-21T00:35:08.226Z,15.75
2023-05-21T00:37:11.952Z,13.75
2023-05-21T00:38:14.349Z,14.40
2023-05-21T00:40:18.199Z,12.50
2023-05-21T00:41:19.943Z,14.55
2023-05-21T00:42:27.272Z,12.88
2023-05-21T00:43:28.998Z,13.57
2023-05-21T00:44:34.197Z,14.98
2023-05-21T00:45:37.337Z,14.77
2023-05-21T00:46:39.795Z,16.92
2023-05-21T00:47:42.276Z,16.42
2023-05-21T00:48:45.204Z,14.98
2023-05-21T00:49:48.258Z,15.90
2023-05-21T00:50:50.372Z,16.25
2023-05-21T00:51:53.013Z,17.17
2023-05-21T00:52:54.700Z,15.35
2023-05-21T00:53:56.972Z,16.35
2023-05-21T00:54:58.805Z,15.60
2023-05-21T00:56:01.314Z,14.07
2023-05-21T00:57:04.006Z,15.98
2023-05-21T00:58:06.567Z,14.70
2023-05-21T00:59:08.450Z,14.85
2023-05-21T01:00:12.141Z,14.93
2023-05-21T01:01:16.049Z,15.32
2023-05-21T01:02:20.781Z,15.40
2023-05-21T01:03:23.210Z,15.20
2023-05-21T01:05:29.661Z,16.83
2023-05-21T01:06:34.693Z,15.95
2023-05-21T01:07:39.012Z,15.98
2023-05-21T01:08:41.878Z,14.57
2023-05-21T01:09:43.628Z,15.73
2023-05-21T01:10:45.255Z,15.45
2023-05-21T01:11:50.101Z,14.30
2023-05-21T01:12:52.669Z,17.40
2023-05-21T01:13:54.285Z,14.98
2023-05-21T01:14:56.234Z,15.70
2023-05-21T01:15:59.165Z,16.13
2023-05-21T01:17:02.218Z,18.05
2023-05-21T01:18:04.252Z,18.65
2023-05-21T01:19:07.115Z,15.80
2023-05-21T01:20:11.969Z,16.23
2023-05-21T01:21:17.289Z,16.20
2023-05-21T01:22:21.730Z,13.77
2023-05-21T01:23:23.630Z,14.23
2023-05-21T01:24:25.452Z,13.65
2023-05-21T01:25:27.108Z,14.20
2023-05-21T01:26:30.393Z,15.32
2023-05-21T01:27:32.012Z,16.75
2023-05-21T01:28:34.569Z,15.75
2023-05-21T01:29:36.289Z,15.10
2023-05-21T01:30:39.762Z,16.42
2023-05-21T01:32:10.073Z,16.02
2023-05-21T01:33:20.300Z,16.00
2023-05-21T01:34:26.743Z,16.25
2023-05-21T01:35:32.923Z,15.30
2023-05-21T01:36:40.922Z,14.45
2023-05-21T01:37:55.202Z,16.63
2023-05-21T01:39:14.836Z,14.32
2023-05-21T01:40:35.419Z,14.95
2023-05-21T01:41:38.776Z,15.38
2023-05-21T01:42:44.043Z,16.25
2023-05-21T01:43:46.567Z,17.27
2023-05-21T01:45:54.728Z,15.25
2023-05-21T01:46:57.031Z,15.80
2023-05-21T01:49:00.644Z,15.48
2023-05-21T01:50:03.764Z,15.75
2023-05-21T01:51:05.945Z,16.80
2023-05-21T01:52:07.517Z,15.10
2023-05-21T01:53:09.109Z,15.05
2023-05-21T01:54:10.738Z,15.00
2023-05-21T01:55:13.543Z,16.77
2023-05-21T01:56:15.957Z,18.75
2023-05-21T01:57:18.557Z,17.00
2023-05-21T01:59:22.848Z,17.48
2023-05-21T02:00:28.249Z,15.20
2023-05-21T02:01:30.510Z,17.17
2023-05-21T02:02:32.399Z,16.90
2023-05-21T02:03:35.011Z,16.45
2023-05-21T02:04:37.331Z,16.83
2023-05-21T02:05:39.036Z,14.40
2023-05-21T02:06:41.768Z,15.52
2023-05-21T02:07:45.279Z,16.05
2023-05-21T02:08:48.449Z,17.10
2023-05-21T02:09:50.071Z,16.35
2023-05-21T02:10:52.374Z,15.68
2023-05-21T02:11:55.455Z,14.20
2023-05-21T02:12:57.082Z,15.40
2023-05-21T02:13:58.679Z,15.52
2023-05-21T02:15:00.276Z,18.17
2023-05-21T02:16:02.318Z,15.10
2023-05-21T02:17:04.097Z,15.73
2023-05-21T02:18:05.854Z,16.77
2023-05-21T02:19:10.407Z,15.43
2023-05-21T02:20:13.555Z,14.90
2023-05-21T02:21:15.580Z,14.80
2023-05-21T02:22:17.237Z,16.88
2023-05-21T02:23:18.817Z,16.00
2023-05-21T02:24:22.247Z,14.63
2023-05-21T02:25:24.101Z,21.13
2023-05-21T02:26:25.794Z,14.77
2023-05-21T02:27:29.018Z,15.45
2023-05-21T02:28:30.839Z,14.82
2023-05-21T02:29:32.873Z,17.30
2023-05-21T02:30:34.455Z,14.68
2023-05-21T02:31:36.048Z,15.55
2023-05-21T02:32:39.746Z,16.45
2023-05-21T02:33:42.065Z,14.43
2023-05-21T02:34:45.068Z,16.50
2023-05-21T02:35:46.848Z,16.05
2023-05-21T02:36:48.501Z,14.70
2023-05-21T02:37:50.125Z,14.43
2023-05-21T02:38:51.742Z,17.35
2023-05-21T02:39:56.611Z,15.13
2023-05-21T02:40:58.866Z,16.25
2023-05-21T02:42:00.718Z,15.23
2023-05-21T02:43:02.357Z,14.90
2023-05-21T02:44:06.199Z,16.08
2023-05-21T02:45:09.263Z,14.57
2023-05-21T02:46:11.546Z,15.50
2023-05-21T02:47:13.181Z,16.95
2023-05-21T02:48:14.946Z,14.48
2023-05-21T02:49:17.042Z,17.25
2023-05-21T02:50:22.745Z,17.23
2023-05-21T02:51:33.475Z,14.20
2023-05-21T02:52:35.482Z,14.40
2023-05-21T02:53:37.349Z,12.60
2023-05-21T02:54:39.354Z,14.60
2023-05-21T02:55:42.053Z,14.05
2023-05-21T02:56:43.729Z,16.15
2023-05-21T02:57:45.574Z,14.90
2023-05-21T02:58:47.256Z,13.18
2023-05-21T02:59:48.908Z,15.00
2023-05-21T03:00:50.805Z,17.58
2023-05-21T03:01:52.573Z,15.38
2023-05-21T03:02:54.371Z,14.30
2023-05-21T03:03:56.207Z,14.10
2023-05-21T03:04:58.978Z,14.88
2023-05-21T03:07:02.293Z,14.23
2023-05-21T03:08:03.981Z,13.60
2023-05-21T03:09:06.001Z,14.85
2023-05-21T03:10:07.786Z,15.38
2023-05-21T03:11:09.976Z,17.77
2023-05-21T03:12:11.751Z,14.30
2023-05-21T03:13:13.482Z,13.80
2023-05-21T03:14:16.242Z,13.43
2023-05-21T03:15:18.182Z,15.30
2023-05-21T03:16:19.911Z,15.98
2023-05-21T03:17:22.236Z,12.27
2023-05-21T03:18:24.230Z,13.23
2023-05-21T03:19:26.443Z,12.10
2023-05-21T03:20:28.916Z,14.50
2023-05-21T03:21:32.204Z,12.23
2023-05-21T03:22:33.834Z,13.93
2023-05-21T03:23:35.575Z,14.48
2023-05-21T03:24:41.374Z,15.23
2023-05-21T03:25:44.084Z,13.60
2023-05-21T03:26:48.169Z,14.38
2023-05-21T03:27:49.968Z,13.80
2023-05-21T03:29:21.105Z,13.05
2023-05-21T03:30:22.897Z,11.75
2023-05-21T03:31:42.808Z,13.73
2023-05-21T03:32:47.175Z,13.90
2023-05-21T03:33:48.842Z,16.75
2023-05-21T03:34:56.252Z,15.73
2023-05-21T03:35:58.981Z,19.42
2023-05-21T03:37:03.236Z,18.40
2023-05-21T03:38:06.180Z,16.38
2023-05-21T03:39:07.805Z,15.88
2023-05-21T03:40:10.694Z,15.18
2023-05-21T03:41:13.459Z,12.77
2023-05-21T03:42:17.210Z,13.95
2023-05-21T03:43:26.387Z,14.57
2023-05-21T03:44:28.439Z,14.82
2023-05-21T03:45:35.816Z,13.77
2023-05-21T03:46:46.619Z,13.40
2023-05-21T03:47:55.390Z,13.88
2023-05-21T03:48:58.266Z,13.18
2023-05-21T03:50:01.705Z,15.82
2023-05-21T03:51:04.050Z,12.50
2023-05-21T03:52:06.133Z,12.73
2023-05-21T03:53:07.908Z,13.70
2023-05-21T03:54:09.539Z,12.82
2023-05-21T03:55:12.523Z,12.57
2023-05-21T03:56:14.204Z,14.43
2023-05-21T03:57:16.680Z,14.73
2023-05-21T03:58:23.194Z,13.30
2023-05-21T03:59:24.886Z,15.00
2023-05-21T04:00:26.853Z,12.93
2023-05-21T04:01:28.767Z,13.07
2023-05-21T04:02:32.398Z,15.07
2023-05-21T04:03:35.953Z,15.82
2023-05-21T04:04:39.668Z,14.30
2023-05-21T04:05:44.733Z,14.20
2023-05-21T04:06:48.274Z,13.98
2023-05-21T04:07:50.067Z,14.07
2023-05-21T04:08:52.249Z,13.48
2023-05-21T04:09:53.880Z,14.07
2023-05-21T04:10:55.615Z,15.00
2023-05-21T04:11:57.801Z,13.02
2023-05-21T04:12:59.402Z,12.27
2023-05-21T04:14:01.620Z,11.68
2023-05-21T04:15:04.571Z,12.00
2023-05-21T04:16:09.100Z,12.15
2023-05-21T04:17:12.732Z,11.82
2023-05-21T04:18:16.611Z,13.38
2023-05-21T04:19:18.408Z,11.65
2023-05-21T04:20:20.719Z,12.50
2023-05-21T04:21:22.434Z,13.23
2023-05-21T04:22:26.606Z,16.48
2023-05-21T04:23:28.390Z,11.35
2023-05-21T04:24:31.842Z,13.85
2023-05-21T04:25:45.328Z,12.10
2023-05-21T04:26:48.092Z,11.20
2023-05-21T04:27:50.545Z,13.45
2023-05-21T04:28:54.023Z,13.20
2023-05-21T04:29:55.780Z,14.30
2023-05-21T04:30:59.059Z,10.45
2023-05-21T04:32:00.777Z,12.15
2023-05-21T04:33:03.162Z,14.07
2023-05-21T04:35:07.262Z,11.18
2023-05-21T04:36:10.552Z,13.35
2023-05-21T04:37:12.298Z,12.18
2023-05-21T04:38:14.111Z,11.18
2023-05-21T04:39:16.885Z,11.50
2023-05-21T04:40:18.635Z,10.93
2023-05-21T04:41:21.263Z,11.55
2023-05-21T04:42:26.209Z,11.40
2023-05-21T04:43:30.399Z,10.95
2023-05-21T04:44:33.731Z,10.55
2023-05-21T04:45:36.009Z,10.88
2023-05-21T04:46:39.676Z,13.00
2023-05-21T04:47:43.641Z,12.52
2023-05-21T04:48:46.760Z,11.85
2023-05-21T04:49:48.410Z,11.32
2023-05-21T04:50:50.854Z,12.40
2023-05-21T04:52:55.081Z,10.73
2023-05-21T04:53:58.084Z,11.02
2023-05-21T04:54:59.698Z,11.13
2023-05-21T04:57:06.427Z,10.77
2023-05-21T04:58:12.381Z,11.05
2023-05-21T04:59:14.960Z,10.77
2023-05-21T05:01:23.739Z,10.25
2023-05-21T05:02:25.507Z,11.43
2023-05-21T05:03:27.281Z,11.40
2023-05-21T05:04:28.989Z,13.20
2023-05-21T05:05:30.991Z,10.73
2023-05-21T05:06:32.745Z,10.75
2023-05-21T05:07:34.394Z,11.32
2023-05-21T05:08:36.243Z,10.73
2023-05-21T05:09:38.632Z,10.52
2023-05-21T05:10:40.282Z,11.57
2023-05-21T05:11:41.916Z,10.82
2023-05-21T05:12:43.597Z,9.85
2023-05-21T05:13:45.199Z,10.93
2023-05-21T05:14:46.930Z,11.30
2023-05-21T05:15:50.243Z,10.43
2023-05-21T05:16:54.348Z,14.15
2023-05-21T05:17:56.671Z,10.80
2023-05-21T05:18:58.453Z,11.68
2023-05-21T05:20:00.990Z,10.02
2023-05-21T05:21:03.620Z,10.38
2023-05-21T05:22:05.450Z,10.93
2023-05-21T05:23:07.578Z,12.45
2023-05-21T05:24:09.171Z,11.48
2023-05-21T05:25:10.883Z,8.70
2023-05-21T05:26:12.682Z,10.55
2023-05-21T05:27:14.884Z,11.07
2023-05-21T05:28:16.650Z,12.05
2023-05-21T05:29:18.330Z,10.20
2023-05-21T05:30:20.753Z,9.68
2023-05-21T05:32:24.063Z,8.60
2023-05-21T05:33:26.011Z,11.70
2023-05-21T05:35:29.809Z,9.48
2023-05-21T05:36:31.603Z,10.70
2023-05-21T05:37:33.646Z,10.45
2023-05-21T05:38:36.242Z,10.27
2023-05-21T05:39:38.117Z,12.93
2023-05-21T05:40:39.888Z,12.65
2023-05-21T05:41:41.526Z,12.38
2023-05-21T05:42:43.260Z,10.45
2023-05-21T05:43:49.045Z,10.13
2023-05-21T05:44:51.528Z,9.13
2023-05-21T05:45:53.196Z,9.18
2023-05-21T05:46:54.878Z,11.70
2023-05-21T05:47:56.604Z,9.25
2023-05-21T05:48:58.257Z,10.30
2023-05-21T05:49:59.894Z,9.32
2023-05-21T05:51:01.829Z,12.40
2023-05-21T05:52:03.678Z,11.88
2023-05-21T05:53:05.536Z,11.38
2023-05-21T05:54:07.156Z,10.80
2023-05-21T05:55:11.901Z,11.30
2023-05-21T05:56:13.524Z,11.23
2023-05-21T05:57:15.872Z,9.88
2023-05-21T05:58:19.512Z,9.85
2023-05-21T05:59:33.768Z,10.32
2023-05-21T06:00:36.689Z,8.32
2023-05-21T06:01:38.898Z,10.98
2023-05-21T06:03:44.254Z,11.00
2023-05-21T06:04:54.702Z,8.25
2023-05-21T06:05:56.385Z,9.90
2023-05-21T06:06:59.920Z,8.80
2023-05-21T06:08:01.788Z,9.88
2023-05-21T06:09:03.492Z,7.75
2023-05-21T06:10:08.581Z,8.75
2023-05-21T06:11:10.969Z,9.32
2023-05-21T06:12:15.907Z,8.40
2023-05-21T06:13:17.597Z,8.43
2023-05-21T06:14:19.887Z,9.55
2023-05-21T06:15:21.572Z,10.20
2023-05-21T06:16:23.252Z,9.07
2023-05-21T06:17:25.044Z,8.40
2023-05-21T06:18:27.794Z,9.32
2023-05-21T06:19:29.473Z,8.40
2023-05-21T06:20:31.166Z,7.68
2023-05-21T06:21:33.698Z,10.52
2023-05-21T06:22:37.007Z,9.80
2023-05-21T06:23:40.097Z,8.38
2023-05-21T06:24:42.005Z,8.30
2023-05-21T06:25:44.481Z,8.40
2023-05-21T06:26:46.426Z,7.65
2023-05-21T06:27:48.073Z,7.22
2023-05-21T06:28:55.405Z,8.88
2023-05-21T06:29:57.369Z,8.25
2023-05-21T06:30:59.016Z,8.10
2023-05-21T06:32:01.747Z,7.97
2023-05-21T06:33:03.664Z,8.48
2023-05-21T06:35:08.264Z,9.35
2023-05-21T06:37:11.697Z,7.93
2023-05-21T06:38:13.356Z,7.47
2023-05-21T06:39:15.057Z,8.40
2023-05-21T06:40:16.958Z,7.57
2023-05-21T06:41:18.616Z,7.30
2023-05-21T06:42:27.006Z,9.57
2023-05-21T06:43:48.701Z,8.38
2023-05-21T06:45:09.314Z,9.68
2023-05-21T06:46:17.621Z,8.68
2023-05-21T06:47:20.919Z,10.23
2023-05-21T06:48:22.584Z,7.53
2023-05-21T06:49:24.428Z,7.25
2023-05-21T06:50:26.397Z,8.32
2023-05-21T06:51:28.439Z,9.23
2023-05-21T06:52:31.760Z,8.35
2023-05-21T06:53:33.583Z,6.45
2023-05-21T06:54:35.524Z,7.22
2023-05-21T06:55:37.440Z,8.95
2023-05-21T06:57:08.943Z,7.88
2023-05-21T06:58:11.468Z,8.70
2023-05-21T06:59:13.149Z,8.38
2023-05-21T07:00:16.308Z,8.77
2023-05-21T07:01:18.051Z,7.25
2023-05-21T07:03:22.860Z,6.82
2023-05-21T07:04:24.556Z,7.40
2023-05-21T07:05:26.181Z,6.90
2023-05-21T07:06:29.548Z,6.82
2023-05-21T07:07:34.765Z,7.05
2023-05-21T07:08:36.489Z,8.25
2023-05-21T07:09:38.417Z,7.25
2023-05-21T07:10:40.693Z,7.25
2023-05-21T07:11:42.377Z,7.75
2023-05-21T07:12:44.739Z,10.10
2023-05-21T07:13:46.364Z,7.70
2023-05-21T07:14:48.233Z,8.68
2023-05-21T07:15:50.016Z,8.40
2023-05-21T07:16:51.722Z,6.85
2023-05-21T07:17:53.398Z,7.70
2023-05-21T07:18:55.365Z,7.35
2023-05-21T07:19:57.034Z,7.38
2023-05-21T07:20:59.527Z,7.65
2023-05-21T07:22:01.740Z,6.63
2023-05-21T07:23:03.454Z,7.13
2023-05-21T07:24:05.149Z,9.10
2023-05-21T07:25:07.512Z,6.43
2023-05-21T07:27:24.879Z,8.60
2023-05-21T07:28:27.848Z,7.55
2023-05-21T07:29:29.530Z,7.25
2023-05-21T07:30:31.231Z,5.68
2023-05-21T07:31:33.395Z,7.53
2023-05-21T07:32:35.512Z,9.80
2023-05-21T07:33:37.245Z,7.05
2023-05-21T07:34:38.855Z,6.45
2023-05-21T07:35:40.977Z,7.45
2023-05-21T07:36:42.661Z,8.52
2023-05-21T07:37:44.380Z,6.85
2023-05-21T07:38:46.151Z,8.02
2023-05-21T07:39:48.078Z,6.18
2023-05-21T07:40:49.754Z,7.55
2023-05-21T07:41:51.383Z,7.53
2023-05-21T07:42:53.100Z,6.93
2023-05-21T07:43:57.161Z,7.10
2023-05-21T07:44:58.862Z,7.97
2023-05-21T07:46:02.014Z,7.30
2023-05-21T07:47:04.855Z,7.15
2023-05-21T07:49:16.485Z,6.78
2023-05-21T07:50:19.356Z,7.07
2023-05-21T07:51:21.057Z,9.10
2023-05-21T07:52:22.807Z,7.45
2023-05-21T07:53:24.585Z,8.13
2023-05-21T07:54:26.439Z,7.07
2023-05-21T07:55:28.336Z,6.90
2023-05-21T07:56:30.194Z,6.80
2023-05-21T07:57:31.973Z,7.70
2023-05-21T07:58:39.409Z,7.80
2023-05-21T07:59:41.040Z,8.15
2023-05-21T08:00:44.947Z,7.13
2023-05-21T08:01:46.887Z,8.10
2023-05-21T08:02:48.631Z,7.10
2023-05-21T08:04:52.853Z,8.00
2023-05-21T08:05:54.657Z,7.13
2023-05-21T08:06:56.795Z,7.97
2023-05-21T08:07:58.427Z,7.30
2023-05-21T08:09:03.793Z,7.03
2023-05-21T08:10:06.407Z,7.45
2023-05-21T08:12:10.031Z,8.50
2023-05-21T08:13:12.848Z,6.88
2023-05-21T08:14:14.621Z,6.35
2023-05-21T08:15:16.589Z,7.10
2023-05-21T08:16:21.359Z,8.10
2023-05-21T08:17:23.106Z,8.07
2023-05-21T08:18:25.416Z,7.15
2023-05-21T08:19:29.292Z,7.10
2023-05-21T08:20:32.622Z,8.15
2023-05-21T08:21:35.518Z,8.32
2023-05-21T08:22:37.174Z,7.95
2023-05-21T08:23:38.821Z,8.10
2023-05-21T08:24:41.342Z,8.10
2023-05-21T08:25:43.057Z,7.05
2023-05-21T08:26:47.447Z,7.28
2023-05-21T08:27:51.603Z,6.85
2023-05-21T08:28:54.230Z,7.13
2023-05-21T08:29:56.122Z,7.20
2023-05-21T08:30:57.930Z,7.25
2023-05-21T08:33:02.502Z,7.50
2023-05-21T08:34:06.299Z,7.03
2023-05-21T08:35:18.379Z,7.72
2023-05-21T08:36:38.730Z,7.97
2023-05-21T08:37:50.239Z,7.75
2023-05-21T08:39:17.706Z,7.35
2023-05-21T08:40:19.379Z,8.13
2023-05-21T08:42:42.633Z,6.72
2023-05-21T08:43:50.410Z,6.88
2023-05-21T08:44:55.093Z,8.70
2023-05-21T08:45:59.196Z,8.00
2023-05-21T08:47:06.742Z,6.93
2023-05-21T08:48:11.449Z,7.38
2023-05-21T08:49:17.556Z,7.35
2023-05-21T08:50:19.628Z,8.45
2023-05-21T08:51:22.589Z,7.65
2023-05-21T08:52:26.947Z,7.53
2023-05-21T08:53:29.314Z,7.45
2023-05-21T08:54:32.692Z,6.53
2023-05-21T08:55:35.359Z,7.32
2023-05-21T08:57:43.389Z,7.35
2023-05-21T08:58:46.889Z,9.85
2023-05-21T08:59:51.194Z,7.53
2023-05-21T09:00:59.021Z,6.70
2023-05-21T09:02:03.601Z,6.97
2023-05-21T09:03:12.418Z,6.93
2023-05-21T09:04:21.387Z,8.27
2023-05-21T09:05:27.159Z,8.90
2023-05-21T09:06:29.308Z,9.68
2023-05-21T09:07:41.395Z,7.25
2023-05-21T09:09:17.096Z,8.18
2023-05-21T09:10:24.728Z,8.35
2023-05-21T09:11:26.790Z,7.20
2023-05-21T09:12:32.273Z,6.85
2023-05-21T09:13:38.834Z,7.80
2023-05-21T09:14:46.165Z,8.00
2023-05-21T09:15:51.695Z,7.25
2023-05-21T09:16:54.914Z,8.00
2023-05-21T09:17:57.547Z,7.18
2023-05-21T09:19:23.016Z,8.98
2023-05-21T09:20:26.600Z,6.88
2023-05-21T09:22:41.811Z,7.30
2023-05-21T09:23:44.620Z,6.72
2023-05-21T09:24:47.925Z,7.30
2023-05-21T09:25:51.883Z,7.70
2023-05-21T09:27:03.298Z,7.03
2023-05-21T09:28:15.409Z,8.52
2023-05-21T09:29:17.121Z,7.13
2023-05-21T09:30:21.861Z,7.80
2023-05-21T09:31:29.443Z,7.72
2023-05-21T09:32:31.310Z,8.57
2023-05-21T09:33:33.141Z,7.38
2023-05-21T09:34:36.784Z,8.98
2023-05-21T09:35:45.007Z,7.88
2023-05-21T09:37:52.855Z,7.22
2023-05-21T09:38:55.729Z,8.32
2023-05-21T09:39:57.340Z,7.20
2023-05-21T09:40:59.677Z,7.05
2023-05-21T09:42:02.476Z,7.75
2023-05-21T09:43:05.113Z,7.68
2023-05-21T09:44:06.835Z,8.00
2023-05-21T09:45:11.116Z,7.85
2023-05-21T09:46:13.081Z,7.43
2023-05-21T09:47:19.664Z,9.00
2023-05-21T09:48:37.798Z,9.32
2023-05-21T09:49:44.045Z,7.25
2023-05-21T09:50:45.893Z,7.45
2023-05-21T09:51:47.523Z,7.63
2023-05-21T09:52:51.047Z,7.53
2023-05-21T09:53:58.605Z,7.32
2023-05-21T09:55:00.227Z,7.90
2023-05-21T09:56:04.117Z,10.52
2023-05-21T09:57:06.023Z,7.90
2023-05-21T09:58:08.300Z,6.93
2023-05-21T09:59:09.934Z,6.82
2023-05-21T10:00:18.615Z,9.80
2023-05-21T10:01:21.307Z,7.65
2023-05-21T10:02:24.620Z,7.28
2023-05-21T10:03:28.397Z,9.23
2023-05-21T10:04:31.586Z,8.75
2023-05-21T10:05:33.629Z,7.47
2023-05-21T10:06:38.079Z,8.23
2023-05-21T10:07:42.372Z,8.25
2023-05-21T10:08:45.501Z,7.22
2023-05-21T10:09:50.694Z,9.07
2023-05-21T10:10:52.336Z,6.70
2023-05-21T10:11:54.492Z,6.93
2023-05-21T10:14:06.185Z,8.20
2023-05-21T10:15:09.501Z,7.85
2023-05-21T10:16:11.539Z,6.78
2023-05-21T10:17:13.757Z,7.18
2023-05-21T10:19:19.038Z,6.65
2023-05-21T10:20:21.205Z,7.18
2023-05-21T10:21:23.516Z,7.78
2023-05-21T10:22:25.629Z,7.32
2023-05-21T10:23:27.364Z,6.85
2023-05-21T10:24:29.028Z,7.70
2023-05-21T10:25:31.486Z,7.30
2023-05-21T10:26:33.320Z,6.82
2023-05-21T10:27:36.532Z,6.72
2023-05-21T10:28:38.449Z,6.85
2023-05-21T10:29:41.789Z,7.13
2023-05-21T10:30:43.570Z,7.47
2023-05-21T10:31:49.664Z,10.15
2023-05-21T10:32:51.869Z,7.85
2023-05-21T10:34:56.066Z,6.65
2023-05-21T10:35:58.501Z,6.72
2023-05-21T10:37:02.377Z,8.02
2023-05-21T10:38:04.710Z,7.93
2023-05-21T10:39:07.893Z,5.97
2023-05-21T10:40:10.164Z,6.78
2023-05-21T10:41:12.479Z,7.35
2023-05-21T10:42:32.125Z,5.90
2023-05-21T10:44:07.365Z,5.95
2023-05-21T10:45:32.522Z,6.47
2023-05-21T10:46:59.065Z,7.85
2023-05-21T10:48:05.106Z,6.95
2023-05-21T10:49:12.439Z,6.28
2023-05-21T10:51:08.235Z,7.53
2023-05-21T10:52:51.423Z,7.47
2023-05-21T10:54:27.708Z,6.43
2023-05-21T10:55:34.965Z,7.40
2023-05-21T10:56:46.849Z,6.75
2023-05-21T10:58:00.337Z,6.82
2023-05-21T10:59:30.537Z,7.30
2023-05-21T11:00:32.320Z,6.75
2023-05-21T11:01:37.486Z,6.80
2023-05-21T11:02:39.337Z,5.93
2023-05-21T11:03:41.169Z,7.28
2023-05-21T11:04:48.862Z,6.28
2023-05-21T11:05:56.830Z,6.35
2023-05-21T11:06:59.158Z,5.95
2023-05-21T11:08:02.352Z,7.88
2023-05-21T11:09:14.115Z,7.75
2023-05-21T11:10:45.313Z,7.78
2023-05-21T11:11:51.273Z,6.55
2023-05-21T11:13:06.232Z,7.05
2023-05-21T11:14:26.305Z,7.43
2023-05-21T11:15:27.985Z,6.28
2023-05-21T11:16:29.811Z,7.15
2023-05-21T11:17:41.989Z,6.85
2023-05-21T11:18:46.313Z,7.70
2023-05-21T11:19:48.041Z,8.23
2023-05-21T11:20:52.254Z,8.57
2023-05-21T11:21:55.433Z,8.50
2023-05-21T11:22:58.241Z,7.70
2023-05-21T11:24:05.179Z,9.57
2023-05-21T11:25:07.253Z,6.60
2023-05-21T11:26:08.860Z,5.68
2023-05-21T11:27:12.403Z,7.50
2023-05-21T11:28:14.089Z,5.45
2023-05-21T11:29:16.153Z,6.97
2023-05-21T11:30:19.535Z,6.30
2023-05-21T11:31:28.057Z,6.55
2023-05-21T11:32:29.830Z,6.30
2023-05-21T11:33:31.547Z,6.05
2023-05-21T11:34:39.413Z,7.90
2023-05-21T11:35:50.109Z,8.20
2023-05-21T11:37:23.121Z,6.88
2023-05-21T11:38:28.402Z,8.30
2023-05-21T11:39:30.004Z,8.13
2023-05-21T11:40:31.807Z,7.30
2023-05-21T11:42:01.560Z,7.72
2023-05-21T11:43:04.828Z,7.85
2023-05-21T11:44:08.839Z,8.02
2023-05-21T11:45:10.956Z,8.05
2023-05-21T11:46:14.171Z,9.40
2023-05-21T11:47:18.412Z,9.77
2023-05-21T11:48:21.626Z,7.45
2023-05-21T11:49:23.263Z,6.90
2023-05-21T11:50:25.802Z,8.30
2023-05-21T11:51:27.581Z,8.27
2023-05-21T11:52:30.587Z,8.25
2023-05-21T11:53:32.228Z,7.18
2023-05-21T11:54:39.307Z,6.75
2023-05-21T11:55:47.300Z,7.82
2023-05-21T11:56:48.932Z,7.25
2023-05-21T11:57:53.432Z,6.65
2023-05-21T11:58:55.898Z,7.43
2023-05-21T12:00:01.566Z,6.28
2023-05-21T12:01:03.472Z,6.82
2023-05-21T12:02:05.508Z,6.32
2023-05-21T12:03:08.284Z,7.05
2023-05-21T12:04:13.553Z,6.70
2023-05-21T12:05:18.790Z,5.95
2023-05-21T12:06:26.764Z,6.90
2023-05-21T12:07:31.809Z,7.78
2023-05-21T12:08:33.408Z,6.00
2023-05-21T12:09:48.128Z,8.48
2023-05-21T12:11:03.620Z,6.45
2023-05-21T12:12:06.461Z,6.60
2023-05-21T12:13:08.129Z,6.97
2023-05-21T12:14:10.886Z,6.75
2023-05-21T12:15:13.479Z,6.60
2023-05-21T12:16:15.210Z,10.18
2023-05-21T12:17:25.304Z,6.80
2023-05-21T12:18:26.981Z,8.18
2023-05-21T12:19:29.269Z,8.32
2023-05-21T12:20:31.136Z,6.38
2023-05-21T12:21:33.288Z,6.50
2023-05-21T12:22:34.985Z,6.05
2023-05-21T12:23:36.718Z,7.47
2023-05-21T12:24:39.202Z,6.97
2023-05-21T12:25:40.997Z,6.13
2023-05-21T12:26:44.526Z,6.75
2023-05-21T12:27:46.636Z,7.32
2023-05-21T12:28:48.945Z,9.65
2023-05-21T12:30:53.658Z,8.80
2023-05-21T12:31:59.479Z,8.07
2023-05-21T12:33:02.561Z,7.60
2023-05-21T12:34:04.553Z,6.90
2023-05-21T12:35:06.474Z,8.15
2023-05-21T12:36:08.150Z,8.18
2023-05-21T12:37:35.685Z,9.15
2023-05-21T12:38:37.495Z,7.53
2023-05-21T12:39:40.442Z,7.20
2023-05-21T12:40:43.659Z,9.57
2023-05-21T12:41:45.284Z,9.48
2023-05-21T12:42:46.984Z,8.13
2023-05-21T12:43:49.265Z,7.70
2023-05-21T12:45:53.686Z,7.80
2023-05-21T12:46:55.615Z,6.85
2023-05-21T12:47:57.395Z,9.00
2023-05-21T12:48:59.025Z,8.35
2023-05-21T12:50:01.925Z,8.30
2023-05-21T12:51:03.642Z,8.82
2023-05-21T12:52:10.495Z,7.18
2023-05-21T12:53:12.378Z,8.30
2023-05-21T12:54:14.383Z,8.25
2023-05-21T12:55:17.192Z,6.25
2023-05-21T12:56:18.840Z,8.52
2023-05-21T12:57:25.042Z,7.30
2023-05-21T12:58:26.676Z,6.18
2023-05-21T12:59:28.295Z,7.43
2023-05-21T13:00:29.975Z,7.18
2023-05-21T13:01:31.627Z,11.18
2023-05-21T13:02:35.598Z,6.82
2023-05-21T13:03:38.257Z,9.18
2023-05-21T13:04:39.969Z,8.75
2023-05-21T13:05:42.229Z,7.40
2023-05-21T13:07:48.888Z,7.10
2023-05-21T13:08:50.538Z,7.72
2023-05-21T13:09:53.441Z,6.55
2023-05-21T13:10:55.656Z,6.03
2023-05-21T13:12:58.985Z,7.65
2023-05-21T13:14:00.771Z,5.80
2023-05-21T13:15:04.491Z,6.38
2023-05-21T13:16:06.420Z,5.22
2023-05-21T13:17:08.156Z,6.97
2023-05-21T13:18:09.879Z,7.38
2023-05-21T13:19:11.615Z,6.15
2023-05-21T13:20:20.457Z,6.97
2023-05-21T13:21:22.234Z,6.43
2023-05-21T13:22:23.854Z,6.13
2023-05-21T13:23:25.609Z,6.30
2023-05-21T13:24:27.259Z,7.72
2023-05-21T13:25:29.332Z,8.02
2023-05-21T13:26:31.092Z,7.47
2023-05-21T13:27:32.733Z,7.35
2023-05-21T13:28:34.371Z,8.13
2023-05-21T13:29:38.020Z,7.90
2023-05-21T13:30:39.852Z,9.90
2023-05-21T13:31:42.321Z,6.13
2023-05-21T13:32:44.215Z,8.10
2023-05-21T13:33:45.937Z,6.88
2023-05-21T13:34:48.057Z,6.97
2023-05-21T13:35:51.334Z,6.25
2023-05-21T13:36:52.951Z,7.60
2023-05-21T13:37:54.595Z,6.40
2023-05-21T13:38:56.437Z,7.13
2023-05-21T13:39:58.184Z,5.78
2023-05-21T13:40:59.791Z,7.00
2023-05-21T13:42:02.238Z,6.80
2023-05-21T13:43:03.875Z,5.75
2023-05-21T13:44:05.676Z,6.53
2023-05-21T13:45:09.660Z,8.82
2023-05-21T13:46:11.309Z,12.93
2023-05-21T13:47:13.069Z,7.72
2023-05-21T13:48:14.713Z,6.35
2023-05-21T13:49:16.451Z,6.00
2023-05-21T13:50:18.132Z,7.05
2023-05-21T13:51:37.114Z,7.38
2023-05-21T13:52:40.078Z,8.05
2023-05-21T13:53:41.689Z,8.05
2023-05-21T13:54:43.682Z,7.72
2023-05-21T13:55:45.357Z,7.47
2023-05-21T13:56:47.347Z,8.20
2023-05-21T13:57:48.951Z,6.20
2023-05-21T13:58:50.580Z,6.82
2023-05-21T13:59:52.266Z,5.60
2023-05-21T14:00:54.364Z,6.05
2023-05-21T14:01:58.072Z,8.23
2023-05-21T14:03:00.018Z,6.47
2023-05-21T14:04:04.357Z,6.05
2023-05-21T14:05:06.276Z,7.25
2023-05-21T14:06:08.366Z,6.45
2023-05-21T14:07:11.208Z,5.68
2023-05-21T14:08:12.872Z,7.63
2023-05-21T14:09:14.555Z,9.25
2023-05-21T14:10:16.193Z,6.45
2023-05-21T14:11:17.846Z,8.85
2023-05-21T14:12:19.477Z,6.97
2023-05-21T14:13:21.101Z,6.93
2023-05-21T14:14:23.418Z,6.47
2023-05-21T14:16:27.621Z,7.65
2023-05-21T14:17:29.256Z,10.45
2023-05-21T14:18:30.897Z,8.38
2023-05-21T14:19:32.658Z,7.80
2023-05-21T14:20:34.481Z,6.40
2023-05-21T14:21:36.137Z,7.20
2023-05-21T14:22:38.230Z,7.82
2023-05-21T14:23:39.853Z,8.18
2023-05-21T14:24:41.602Z,6.00
2023-05-21T14:25:43.266Z,6.97
2023-05-21T14:26:44.986Z,8.15
2023-05-21T14:27:46.571Z,9.35
2023-05-21T14:28:48.206Z,7.38
2023-05-21T14:29:49.794Z,7.78
2023-05-21T14:30:51.399Z,6.07
2023-05-21T14:31:53.117Z,6.78
2023-05-21T14:32:57.262Z,7.68
2023-05-21T14:33:59.573Z,5.97
2023-05-21T14:35:01.241Z,5.90
2023-05-21T14:36:03.276Z,5.78
2023-05-21T14:37:05.136Z,8.13
2023-05-21T14:38:06.815Z,8.73
2023-05-21T14:39:08.533Z,7.95